Time;durP1;ratioP1;P1;durP2;ratioP2;P2;SDS_P1;SDS_P2;PMS_P1;PMS_P2;Temp;Humidity;BMP_temperature;BMP_pressure;BME280_temperature;BME280_humidity;BME280_pressure;Samples;Min_cycle;Max_cycle;Signal;HPM_P1;HPM_P2
2023/05/13 00:00:40;;;;;;;5.53;1.95;;;;;;;10.19;51.73;100281.41;3088726;28;20055;-71
2023/05/13 00:02:12;;;;;;;5.20;2.03;;;;;;;10.20;51.83;100280.47;3089769;28;20058;-71
2023/05/13 00:03:44;;;;;;;4.50;1.90;;;;;;;10.19;51.87;100276.19;3086278;28;20050;-72
2023/05/13 00:05:16;;;;;;;4.55;1.95;;;;;;;10.16;51.90;100274.53;3089259;28;20058;-71
2023/05/13 00:06:50;;;;;;;5.03;1.75;;;;;;;10.18;51.98;100279.72;3089822;28;20077;-72
2023/05/13 00:08:20;;;;;;;;;;;;;;;10.13;51.70;100292.03;3090327;28;20078;-72
2023/05/13 00:09:52;;;;;;;6.03;1.77;;;;;;;10.13;52.01;100292.88;3089681;28;20031;-72
2023/05/13 00:11:23;;;;;;;4.00;1.83;;;;;;;10.16;52.22;100291.91;3089518;28;20050;-72
2023/05/13 00:12:55;;;;;;;3.63;1.80;;;;;;;10.10;52.11;100277.38;3089616;28;20072;-72
2023/05/13 00:14:27;;;;;;;6.72;1.90;;;;;;;10.18;52.13;100287.50;3089637;28;20065;-71
2023/05/13 00:15:58;;;;;;;2.83;1.73;;;;;;;10.17;52.44;100289.25;3090381;28;20471;-72
2023/05/13 00:17:30;;;;;;;2.35;1.23;;;;;;;10.17;52.39;100289.25;3095752;28;20054;-70
2023/05/13 00:19:01;;;;;;;3.80;1.92;;;;;;;10.16;52.64;100284.94;3089720;28;20054;-71
2023/05/13 00:20:33;;;;;;;4.45;1.85;;;;;;;10.17;52.42;100283.19;3089748;28;20457;-71
2023/05/13 00:22:06;;;;;;;4.47;1.70;;;;;;;10.18;52.29;100290.13;3089757;28;20047;-71
2023/05/13 00:23:37;;;;;;;;;;;;;;;10.11;52.17;100294.66;3089844;28;20115;-72
2023/05/13 00:25:09;;;;;;;5.53;1.80;;;;;;;10.10;52.65;100285.19;3089790;28;19926;-72
2023/05/13 00:26:41;;;;;;;8.27;1.70;;;;;;;10.15;52.50;100295.44;3089565;28;20061;-71
2023/05/13 00:28:13;;;;;;;5.22;1.63;;;;;;;10.17;52.87;100294.44;3089609;28;20451;-71
2023/05/13 00:29:45;;;;;;;6.50;1.83;;;;;;;10.19;52.77;100297.00;3090046;28;20058;-72
2023/05/13 00:31:17;;;;;;;7.47;2.10;;;;;;;10.17;52.83;100297.06;3078268;28;20501;-71
2023/05/13 00:32:49;;;;;;;3.83;1.90;;;;;;;10.22;52.83;100302.09;3089483;28;20050;-72
2023/05/13 00:34:21;;;;;;;8.98;2.00;;;;;;;10.24;52.78;100302.91;3089845;28;20521;-72
2023/05/13 00:35:53;;;;;;;4.20;1.58;;;;;;;10.25;53.05;100297.63;3089689;28;20194;-71
2023/05/13 00:37:26;;;;;;;5.60;1.73;;;;;;;10.28;53.10;100295.88;3089477;28;20061;-71
2023/05/13 00:38:58;;;;;;;3.00;1.90;;;;;;;10.24;52.98;100290.75;3089829;28;20055;-71
2023/05/13 00:40:30;;;;;;;6.85;1.83;;;;;;;10.19;53.18;100284.00;3114233;28;20055;-71
2023/05/13 00:42:03;;;;;;;8.05;1.85;;;;;;;10.23;53.35;100289.06;3089926;28;20078;-72
2023/05/13 00:43:35;;;;;;;4.15;1.92;;;;;;;10.22;53.38;100296.91;3089500;28;20088;-72
2023/05/13 00:45:07;;;;;;;5.30;1.95;;;;;;;10.19;53.32;100295.25;3089100;28;20058;-72
2023/05/13 00:46:39;;;;;;;9.43;1.83;;;;;;;10.21;53.37;100301.25;3089404;28;20063;-71
2023/05/13 00:48:10;;;;;;;7.57;2.15;;;;;;;10.21;53.71;100306.47;3089832;28;20061;-71
2023/05/13 00:49:43;;;;;;;6.88;2.33;;;;;;;10.15;53.35;100298.88;3101003;28;20050;-71
2023/05/13 00:51:15;;;;;;;6.35;2.17;;;;;;;10.22;53.53;100312.50;3089535;28;20061;-71
2023/05/13 00:52:50;;;;;;;3.42;1.50;;;;;;;10.24;53.75;100311.56;3089306;28;20588;-71
2023/05/13 00:54:21;;;;;;;8.07;1.65;;;;;;;10.27;53.72;100318.44;3089909;28;20054;-71
2023/05/13 00:55:53;;;;;;;4.68;1.90;;;;;;;10.27;53.67;100318.44;3089373;28;20077;-71
2023/05/13 00:57:24;;;;;;;8.02;1.90;;;;;;;10.28;53.88;100317.53;3089295;28;20479;-71
2023/05/13 00:58:56;;;;;;;4.47;2.00;;;;;;;10.31;53.70;100327.00;3089358;28;20791;-70
2023/05/13 01:00:30;;;;;;;8.80;1.83;;;;;;;10.32;53.90;100324.31;3089316;28;20058;-71
2023/05/13 01:02:10;;;;;;;5.75;2.50;;;;;;;10.32;53.97;100319.13;3103996;28;20050;-72
2023/05/13 01:03:50;;;;;;;6.63;1.75;;;;;;;10.33;53.96;100323.44;3085113;28;20050;-72
2023/05/13 01:05:28;;;;;;;5.60;2.22;;;;;;;10.34;53.89;100321.69;3089183;28;20066;-80
2023/05/13 01:07:09;;;;;;;9.30;1.92;;;;;;;10.35;53.66;100319.03;3089573;28;20492;-78
2023/05/13 01:08:52;;;;;;;4.78;2.17;;;;;;;10.37;53.83;100321.56;3089448;28;20076;-77
2023/05/13 01:10:34;;;;;;;8.30;1.90;;;;;;;10.35;53.80;100319.03;3077706;28;20051;-78
2023/05/13 01:12:09;;;;;;;5.25;1.80;;;;;;;10.39;53.91;100317.16;3083087;28;20554;-77
2023/05/13 01:13:42;;;;;;;6.43;1.95;;;;;;;10.37;53.89;100312.00;3089239;28;20131;-77
2023/05/13 01:15:19;;;;;;;5.60;2.13;;;;;;;10.42;53.77;100315.28;3089378;28;20610;-78
2023/05/13 01:16:59;;;;;;;9.68;1.80;;;;;;;10.41;53.89;100320.53;3081957;28;20111;-76
2023/05/13 01:18:36;;;;;;;4.43;1.80;;;;;;;10.42;54.10;100324.88;3089257;28;20531;-75
2023/05/13 01:20:09;;;;;;;6.18;1.67;;;;;;;10.42;53.89;100319.66;3090041;28;20054;-76
2023/05/13 01:21:52;;;;;;;4.68;1.73;;;;;;;10.42;54.11;100320.50;3089920;28;20058;-77
2023/05/13 01:23:23;;;;;;;8.73;2.08;;;;;;;10.43;54.13;100316.13;3090109;28;20054;-76
2023/05/13 01:24:56;;;;;;;7.28;1.60;;;;;;;10.43;54.17;100327.41;3090161;28;20058;-76
2023/05/13 01:26:28;;;;;;;5.65;2.03;;;;;;;10.39;54.24;100309.34;3089608;28;20107;-76
2023/05/13 01:28:00;;;;;;;5.93;2.40;;;;;;;10.43;54.25;100311.78;3090072;28;20057;-76
2023/05/13 01:29:31;;;;;;;4.85;1.70;;;;;;;10.43;54.40;100305.72;3089792;28;20057;-77
2023/05/13 01:31:13;;;;;;;8.00;1.80;;;;;;;10.44;54.68;100308.28;3090049;28;20065;-76
2023/05/13 01:32:44;;;;;;;10.75;1.90;;;;;;;10.40;54.72;100300.63;3089425;28;20104;-76
2023/05/13 01:34:18;;;;;;;6.53;2.30;;;;;;;10.44;54.47;100312.63;3089223;28;20127;-76
2023/05/13 01:35:52;;;;;;;6.90;2.25;;;;;;;10.37;54.64;100306.78;3089472;28;20145;-77
2023/05/13 01:37:25;;;;;;;;;;;;;;;10.37;54.53;100321.56;3082723;28;20494;-74
2023/05/13 01:38:58;;;;;;;9.60;3.50;;;;;;;10.35;54.82;100319.03;3084885;28;20414;-74
2023/05/13 01:40:31;;;;;;;6.25;2.05;;;;;;;10.40;54.89;100322.28;3088967;28;20538;-74
2023/05/13 01:42:03;;;;;;;6.75;1.80;;;;;;;10.35;55.17;100310.34;3088947;28;20054;-73
2023/05/13 01:43:35;;;;;;;4.32;2.03;;;;;;;10.43;55.27;100327.41;3088858;28;20062;-74
2023/05/13 01:45:08;;;;;;;4.53;2.13;;;;;;;10.43;55.43;100330.00;3088601;28;20050;-74
2023/05/13 01:46:40;;;;;;;5.60;1.85;;;;;;;10.44;55.47;100336.06;3089078;28;20054;-74
2023/05/13 01:48:11;;;;;;;8.18;1.98;;;;;;;10.37;55.51;100326.78;3088843;28;20081;-74
2023/05/13 01:49:43;;;;;;;4.70;2.08;;;;;;;10.43;55.43;100336.97;3102758;28;20152;-74
2023/05/13 01:51:15;;;;;;;6.47;2.42;;;;;;;10.45;55.68;100340.38;3088840;28;20054;-78
2023/05/13 01:52:47;;;;;;;5.25;1.75;;;;;;;10.47;55.42;100338.56;3088954;28;20190;-78
2023/05/13 01:54:19;;;;;;;5.68;2.45;;;;;;;10.21;55.50;100298.66;3088655;28;20077;-76
2023/05/13 01:55:51;;;;;;;8.70;2.45;;;;;;;10.50;55.54;100342.78;3088736;28;20131;-78
2023/05/13 01:57:22;;;;;;;3.85;1.90;;;;;;;10.50;55.58;100338.47;3088881;28;20427;-79
2023/05/13 01:58:54;;;;;;;6.72;2.20;;;;;;;10.53;55.83;100343.56;3088949;28;20050;-78
2023/05/13 02:00:26;;;;;;;6.57;1.75;;;;;;;10.39;55.60;100317.16;3089162;28;20066;-79
2023/05/13 02:01:58;;;;;;;8.43;2.67;;;;;;;10.58;55.94;100349.44;3088774;28;20046;-79
2023/05/13 02:03:30;;;;;;;4.20;2.38;;;;;;;10.59;55.89;100345.94;3087051;28;20054;-79
2023/05/13 02:05:01;;;;;;;7.15;2.53;;;;;;;10.61;55.80;100346.72;3097760;28;20109;-80
2023/05/13 02:06:33;;;;;;;5.82;1.77;;;;;;;10.63;55.80;100344.91;3088785;28;20054;-79
2023/05/13 02:08:06;;;;;;;6.70;1.90;;;;;;;10.65;55.88;100343.09;3088992;28;20438;-77
2023/05/13 02:09:38;;;;;;;5.15;2.65;;;;;;;10.66;55.78;100336.97;3089095;28;20129;-78
2023/05/13 02:11:09;;;;;;;6.43;2.08;;;;;;;10.69;55.67;100338.63;3089495;28;20137;-78
2023/05/13 02:12:41;;;;;;;7.18;2.15;;;;;;;10.70;55.64;100338.56;3088754;28;20412;-77
2023/05/13 02:14:13;;;;;;;5.35;1.90;;;;;;;10.74;55.92;100341.03;3091135;28;20456;-78
2023/05/13 02:15:44;;;;;;;4.53;1.92;;;;;;;10.75;55.94;100337.56;3089085;28;20610;-78
2023/05/13 02:17:16;;;;;;;2.55;1.70;;;;;;;10.75;56.08;100338.41;3088454;28;20054;-77
2023/05/13 02:18:48;;;;;;;7.85;1.80;;;;;;;10.77;56.11;100347.00;3088950;28;20442;-77
2023/05/13 02:20:20;;;;;;;4.68;2.13;;;;;;;10.61;56.08;100310.25;3088582;28;20088;-76
2023/05/13 02:21:52;;;;;;;4.07;1.92;;;;;;;10.77;56.05;100330.53;3088939;28;20062;-78
2023/05/13 02:23:25;;;;;;;8.25;2.30;;;;;;;10.80;55.83;100327.81;3087739;28;20111;-78
2023/05/13 02:24:57;;;;;;;4.40;2.15;;;;;;;10.76;56.04;100337.47;3088339;28;20459;-78
2023/05/13 02:26:29;;;;;;;3.95;1.92;;;;;;;10.76;56.00;100334.88;3088441;28;20124;-76
2023/05/13 02:28:01;;;;;;;8.27;2.35;;;;;;;10.76;56.02;100324.44;3088647;28;20496;-77
2023/05/13 02:29:32;;;;;;;7.93;2.47;;;;;;;10.39;56.09;100263.34;3088526;28;20058;-76
2023/05/13 02:31:05;;;;;;;4.65;2.08;;;;;;;10.76;56.04;100318.41;3088466;28;20107;-81
2023/05/13 02:32:36;;;;;;;4.10;2.23;;;;;;;10.79;56.40;100328.69;3088886;28;20087;-81
2023/05/13 02:34:08;;;;;;;11.70;2.78;;;;;;;10.79;56.30;100324.34;3089075;28;20177;-81
2023/05/13 02:35:40;;;;;;;6.25;1.90;;;;;;;10.80;56.49;100325.22;3088496;28;20054;-81
2023/05/13 02:37:12;;;;;;;5.72;1.90;;;;;;;10.80;56.60;100328.66;3088613;28;20061;-80
2023/05/13 02:38:44;;;;;;;7.75;2.45;;;;;;;10.81;56.64;100325.13;3088340;28;20065;-79
2023/05/13 02:40:16;;;;;;;6.07;2.15;;;;;;;10.79;56.63;100318.28;3088744;28;20340;-80
2023/05/13 02:41:48;;;;;;;8.80;1.88;;;;;;;10.80;56.63;100315.63;3088493;28;20132;-78
2023/05/13 02:43:22;;;;;;;6.80;2.67;;;;;;;10.84;56.87;100321.56;3088302;28;20634;-78
2023/05/13 02:44:54;;;;;;;4.85;2.05;;;;;;;10.83;56.91;100325.09;3088851;28;20616;-78
2023/05/13 02:46:26;;;;;;;8.65;3.00;;;;;;;10.84;56.85;100325.03;3088349;28;20072;-78
2023/05/13 02:47:57;;;;;;;5.53;2.17;;;;;;;10.82;56.80;100321.63;3088566;28;20054;-78
2023/05/13 02:49:28;;;;;;;8.82;2.22;;;;;;;10.84;56.72;100325.03;3098867;28;20064;-78
2023/05/13 02:51:00;;;;;;;6.97;2.45;;;;;;;10.87;57.01;100331.88;3088401;28;20050;-78
2023/05/13 02:52:34;;;;;;;6.53;2.20;;;;;;;10.83;57.06;100325.09;3088746;28;20141;-78
2023/05/13 02:54:08;;;;;;;5.72;2.25;;;;;;;10.84;57.28;100324.19;3088902;28;20310;-78
2023/05/13 02:55:39;;;;;;;9.35;2.63;;;;;;;10.80;56.97;100326.06;3088069;28;20056;-77
2023/05/13 02:57:10;;;;;;;3.42;1.88;;;;;;;10.91;57.28;100349.97;3088941;28;20054;-78
2023/05/13 02:58:42;;;;;;;9.05;2.50;;;;;;;10.77;57.28;100320.97;3088315;28;20058;-78
2023/05/13 03:00:15;;;;;;;5.25;2.55;;;;;;;10.94;57.41;100343.75;3132929;28;20081;-78
2023/05/13 03:01:48;;;;;;;3.50;2.25;;;;;;;10.92;57.26;100329.94;3086765;28;20579;-77
2023/05/13 03:03:20;;;;;;;4.93;2.03;;;;;;;10.89;57.59;100332.69;3083376;28;20058;-76
2023/05/13 03:04:53;;;;;;;4.43;2.05;;;;;;;10.94;57.34;100341.16;3086067;28;20089;-75
2023/05/13 03:06:25;;;;;;;4.28;2.15;;;;;;;10.97;57.36;100345.41;3085901;28;20512;-75
2023/05/13 03:07:57;;;;;;;30.98;7.60;;;;;;;11.03;57.31;100346.03;3087963;28;20046;-75
2023/05/13 03:09:30;;;;;;;13.15;4.10;;;;;;;11.05;57.54;100345.97;3087180;28;20159;-76
2023/05/13 03:11:02;;;;;;;;;;;;;;;11.02;57.39;100356.50;3087146;28;20077;-76
2023/05/13 03:12:34;;;;;;;7.70;2.28;;;;;;;11.02;57.22;100351.28;3087049;28;19957;-76
2023/05/13 03:14:05;;;;;;;8.57;2.75;;;;;;;10.95;57.58;100345.47;3086103;28;20525;-74
2023/05/13 03:15:37;;;;;;;7.88;2.30;;;;;;;11.06;57.24;100353.72;3087170;28;20065;-75
2023/05/13 03:17:09;;;;;;;9.23;2.70;;;;;;;11.06;57.42;100358.06;3087172;28;20561;-75
2023/05/13 03:18:41;;;;;;;7.78;2.88;;;;;;;11.11;57.68;100356.16;3086803;28;20165;-74
2023/05/13 03:20:13;;;;;;;7.78;2.33;;;;;;;11.11;57.74;100357.00;3087307;28;20060;-75
2023/05/13 03:21:45;;;;;;;4.97;2.22;;;;;;;11.11;57.55;100362.22;3087003;28;20137;-75
2023/05/13 03:23:17;;;;;;;6.32;1.90;;;;;;;11.15;57.55;100363.81;3088569;28;20104;-76
2023/05/13 03:24:50;;;;;;;7.13;2.25;;;;;;;10.98;57.65;100332.31;3092112;28;20092;-75
2023/05/13 03:26:22;;;;;;;;;;;;;;;11.16;57.35;100373.31;3092611;28;20146;-75
2023/05/13 03:27:54;;;;;;;7.70;2.28;;;;;;;11.18;57.42;100372.41;3092149;28;19926;-75
2023/05/13 03:29:26;;;;;;;5.95;2.70;;;;;;;11.21;57.47;100377.50;3093338;28;20551;-75
2023/05/13 03:30:57;;;;;;;4.82;2.10;;;;;;;11.20;57.40;100370.59;3097154;28;20055;-75
2023/05/13 03:32:30;;;;;;;8.25;2.20;;;;;;;11.24;57.62;100378.25;3093206;28;20512;-75
2023/05/13 03:34:02;;;;;;;5.90;2.15;;;;;;;11.26;57.32;100371.19;3093084;28;20059;-73
2023/05/13 03:35:34;;;;;;;7.97;2.63;;;;;;;11.28;57.26;100372.00;3095408;28;20058;-75
2023/05/13 03:37:06;;;;;;;7.53;2.50;;;;;;;11.30;57.51;100369.34;3095516;28;20054;-75
2023/05/13 03:38:38;;;;;;;10.15;3.10;;;;;;;11.29;57.41;100376.28;3095414;28;20061;-76
2023/05/13 03:40:11;;;;;;;12.95;2.65;;;;;;;11.24;57.53;100372.16;3095242;28;20058;-73
2023/05/13 03:41:44;;;;;;;5.65;2.20;;;;;;;11.31;57.56;100373.63;3095162;28;20053;-73
2023/05/13 03:43:16;;;;;;;6.15;3.03;;;;;;;11.32;57.15;100375.31;3095202;28;20743;-73
2023/05/13 03:44:48;;;;;;;6.70;3.30;;;;;;;11.33;57.21;100369.22;3095077;28;20053;-73
2023/05/13 03:46:20;;;;;;;7.68;2.70;;;;;;;11.35;57.23;100365.63;3095233;28;20054;-73
2023/05/13 03:47:51;;;;;;;6.93;2.60;;;;;;;11.37;57.41;100373.41;3095024;28;20058;-73
2023/05/13 03:49:22;;;;;;;5.15;2.63;;;;;;;11.40;57.48;100373.28;3105782;28;20059;-73
2023/05/13 03:50:53;;;;;;;10.20;2.50;;;;;;;11.42;57.54;100373.19;3095052;28;20058;-73
2023/05/13 03:52:25;;;;;;;9.77;2.70;;;;;;;11.44;57.16;100374.84;3095124;28;20051;-73
2023/05/13 03:53:57;;;;;;;9.13;3.63;;;;;;;11.41;57.15;100367.13;3095313;28;20062;-72
2023/05/13 03:55:30;;;;;;;7.05;3.05;;;;;;;11.48;56.98;100375.59;3094969;28;20055;-73
2023/05/13 03:57:01;;;;;;;;;;;;;;;11.40;57.20;100375.88;3095601;28;20046;-73
2023/05/13 03:58:32;;;;;;;7.93;3.00;;;;;;;11.33;57.43;100371.81;3094975;28;20019;-73
2023/05/13 04:00:06;;;;;;;9.07;2.92;;;;;;;11.32;57.76;100370.94;3094733;28;20066;-73
2023/05/13 04:01:37;;;;;;;;;;;;;;;11.22;57.41;100364.41;3099062;28;20046;-73
2023/05/13 04:03:09;;;;;;;14.18;2.65;;;;;;;11.22;57.76;100368.78;3094131;28;19922;-73
2023/05/13 04:04:41;;;;;;;8.05;2.75;;;;;;;11.22;57.66;100359.19;3095118;28;20050;-73
2023/05/13 04:06:13;;;;;;;9.43;3.00;;;;;;;11.29;57.61;100363.25;3095223;28;20050;-74
2023/05/13 04:07:45;;;;;;;9.40;3.22;;;;;;;11.34;57.65;100365.69;3094726;28;20081;-74
2023/05/13 04:09:17;;;;;;;10.70;5.13;;;;;;;11.31;57.88;100355.38;3094964;28;20129;-74
2023/05/13 04:10:50;;;;;;;9.68;3.92;;;;;;;11.35;57.93;100359.56;3095099;28;20055;-74
2023/05/13 04:12:22;;;;;;;10.43;3.60;;;;;;;11.30;58.12;100354.53;3097465;28;20494;-74
2023/05/13 04:13:54;;;;;;;7.88;3.38;;;;;;;11.33;58.17;100361.41;3094829;28;20195;-74
2023/05/13 04:15:26;;;;;;;7.18;3.58;;;;;;;11.38;58.00;100364.66;3094926;28;20053;-74
2023/05/13 04:16:57;;;;;;;10.13;3.53;;;;;;;11.40;58.19;100357.63;3095118;28;20042;-74
2023/05/13 04:18:30;;;;;;;8.48;3.50;;;;;;;11.42;58.20;100361.03;3095031;28;20061;-74
2023/05/13 04:20:02;;;;;;;9.60;3.20;;;;;;;11.38;58.42;100365.50;3094765;28;20105;-74
2023/05/13 04:21:33;;;;;;;6.00;2.97;;;;;;;11.35;58.13;100368.22;3095070;28;20548;-74
2023/05/13 04:23:05;;;;;;;6.25;3.10;;;;;;;11.34;57.94;100370.91;3094861;28;20054;-74
2023/05/13 04:24:37;;;;;;;12.10;2.85;;;;;;;11.31;58.26;100371.03;3094632;28;20068;-73
2023/05/13 04:26:10;;;;;;;5.07;2.90;;;;;;;11.29;57.98;100370.22;3094566;28;20043;-73
2023/05/13 04:27:41;;;;;;;7.50;2.80;;;;;;;11.31;57.91;100379.69;3094679;28;20434;-73
2023/05/13 04:29:16;;;;;;;6.07;2.90;;;;;;;11.11;58.02;100353.53;3094810;28;20046;-75
2023/05/13 04:30:47;;;;;;;8.95;2.78;;;;;;;11.18;58.05;100368.06;3094820;28;20537;-75
2023/05/13 04:32:20;;;;;;;5.30;3.35;;;;;;;11.27;58.67;100388.56;3094256;28;20051;-74
2023/05/13 04:33:52;;;;;;;11.45;3.05;;;;;;;11.27;58.53;100390.28;3094559;28;20496;-75
2023/05/13 04:35:24;;;;;;;11.38;3.00;;;;;;;11.29;59.05;100388.47;3094802;28;20054;-76
2023/05/13 04:36:56;;;;;;;7.70;2.83;;;;;;;11.32;58.90;100396.19;3094572;28;20077;-76
2023/05/13 04:38:28;;;;;;;10.18;3.15;;;;;;;11.37;58.85;100402.91;3094435;28;20589;-77
2023/05/13 04:39:59;;;;;;;4.15;2.72;;;;;;;11.16;59.02;100362.88;3094775;28;20099;-76
2023/05/13 04:41:32;;;;;;;5.70;2.67;;;;;;;11.46;59.50;100393.03;3094438;28;20057;-73
2023/05/13 04:43:04;;;;;;;7.03;3.03;;;;;;;11.48;59.44;100401.66;3094478;28;20439;-74
2023/05/13 04:44:36;;;;;;;8.25;3.35;;;;;;;11.45;59.66;100400.03;3089830;28;20055;-75
2023/05/13 04:46:07;;;;;;;12.07;2.88;;;;;;;11.48;59.60;100402.50;3085977;28;20490;-74
2023/05/13 04:47:39;;;;;;;8.27;3.00;;;;;;;11.36;59.72;100384.75;3090351;28;20058;-74
2023/05/13 04:49:11;;;;;;;6.28;2.72;;;;;;;11.54;60.18;100412.69;3092686;28;20450;-75
2023/05/13 04:50:45;;;;;;;6.38;3.22;;;;;;;11.52;60.27;100417.13;3086578;28;20063;-74
2023/05/13 04:52:18;;;;;;;8.57;3.50;;;;;;;11.54;60.04;100420.53;3084367;28;20137;-74
2023/05/13 04:53:50;;;;;;;6.60;3.30;;;;;;;11.58;60.23;100427.31;3082831;28;20058;-74
2023/05/13 04:55:21;;;;;;;6.97;3.20;;;;;;;11.64;60.20;100428.00;3084290;28;20051;-75
2023/05/13 04:56:54;;;;;;;8.52;3.33;;;;;;;11.69;60.60;100429.50;3085863;28;20058;-75
2023/05/13 04:58:26;;;;;;;11.77;3.55;;;;;;;11.70;60.35;100425.13;3105789;28;20131;-72
2023/05/13 04:59:58;;;;;;;7.57;3.45;;;;;;;11.72;60.33;100425.94;3087050;28;20444;-74
2023/05/13 05:01:29;;;;;;;8.65;3.17;;;;;;;11.83;60.02;100436.75;3086665;28;20054;-76
2023/05/13 05:03:01;;;;;;;8.68;4.05;;;;;;;11.87;60.14;100427.09;3086537;28;20683;-75
2023/05/13 05:04:32;;;;;;;8.52;3.33;;;;;;;11.90;60.20;100419.16;3090467;28;20507;-77
2023/05/13 05:06:05;;;;;;;5.47;3.40;;;;;;;11.91;60.00;100413.84;3091684;28;20112;-78
2023/05/13 05:07:39;;;;;;;8.65;3.72;;;;;;;11.95;59.72;100420.66;3088370;28;20055;-75
2023/05/13 05:09:11;;;;;;;8.55;3.45;;;;;;;11.92;59.69;100423.41;3088936;28;20050;-74
2023/05/13 05:10:42;;;;;;;12.52;3.45;;;;;;;11.90;59.94;100430.44;3094344;28;20546;-73
2023/05/13 05:12:16;;;;;;;9.15;3.47;;;;;;;11.97;59.52;100431.03;3090009;28;20420;-74
2023/05/13 05:13:47;;;;;;;9.07;3.45;;;;;;;12.02;59.58;100434.31;3084872;28;20058;-74
2023/05/13 05:15:19;;;;;;;6.63;3.53;;;;;;;12.07;59.80;100437.59;3091919;28;20051;-74
2023/05/13 05:16:51;;;;;;;17.48;4.65;;;;;;;12.12;59.66;100443.44;3093245;28;20119;-83
2023/05/13 05:18:23;;;;;;;12.93;4.40;;;;;;;12.22;59.76;100446.56;3085821;28;20085;-79
2023/05/13 05:19:54;;;;;;;14.40;4.65;;;;;;;12.30;59.39;100439.22;3087828;28;20077;-75
2023/05/13 05:21:26;;;;;;;8.10;3.80;;;;;;;12.41;59.48;100439.63;3091909;28;20100;-72
2023/05/13 05:22:58;;;;;;;8.93;3.40;;;;;;;12.50;59.40;100436.63;3088934;28;20172;-72
2023/05/13 05:24:30;;;;;;;9.57;3.33;;;;;;;12.45;59.39;100417.69;3086154;28;20066;-72
2023/05/13 05:26:02;;;;;;;9.77;4.13;;;;;;;12.70;58.99;100445.38;3091868;28;20538;-73
2023/05/13 05:27:34;;;;;;;6.90;3.42;;;;;;;12.77;58.86;100449.41;3093065;28;20050;-74
2023/05/13 05:29:06;;;;;;;8.68;3.85;;;;;;;12.84;59.09;100436.94;3086937;28;20538;-73
2023/05/13 05:30:39;;;;;;;6.07;3.08;;;;;;;12.88;58.76;100421.03;3089003;28;20195;-75
2023/05/13 05:32:10;;;;;;;7.35;3.22;;;;;;;13.00;58.65;100440.53;3094260;28;20501;-75
2023/05/13 05:33:42;;;;;;;7.22;3.28;;;;;;;13.07;58.21;100441.09;3088407;28;20054;-76
2023/05/13 05:35:15;;;;;;;8.60;3.30;;;;;;;13.13;58.09;100436.47;3083125;28;20046;-77
2023/05/13 05:36:46;;;;;;;6.60;2.88;;;;;;;13.24;57.64;100443.81;3093088;28;20062;-75
2023/05/13 05:38:18;;;;;;;8.75;3.45;;;;;;;13.35;57.44;100443.34;3092436;28;20050;-70
2023/05/13 05:39:50;;;;;;;4.85;2.95;;;;;;;13.45;57.21;100435.91;3086759;28;20050;-71
2023/05/13 05:41:22;;;;;;;14.25;5.65;;;;;;;13.57;56.89;100445.81;3089978;28;20519;-73
2023/05/13 05:42:55;;;;;;;67.15;30.48;;;;;;;13.63;56.37;100443.72;3093988;28;20539;-74
2023/05/13 05:44:26;;;;;;;7.70;4.57;;;;;;;13.64;56.41;100439.38;3088642;28;20059;-77
2023/05/13 05:45:58;;;;;;;23.20;9.98;;;;;;;13.63;56.19;100446.34;3086048;28;20119;-78
2023/05/13 05:47:30;;;;;;;35.15;16.35;;;;;;;13.60;55.70;100436.03;3093849;28;20095;-74
2023/05/13 05:49:02;;;;;;;105.72;62.38;;;;;;;13.65;55.86;100443.69;3087518;28;20087;-75
2023/05/13 05:50:35;;;;;;;26.85;15.77;;;;;;;13.60;55.68;100437.81;3082506;28;20054;-76
2023/05/13 05:52:09;;;;;;;13.52;7.05;;;;;;;13.58;55.89;100431.81;3090358;28;20058;-73
2023/05/13 05:53:41;;;;;;;13.73;8.88;;;;;;;13.53;55.82;100428.56;3092778;28;20067;-74
2023/05/13 05:55:13;;;;;;;7.25;4.13;;;;;;;13.52;56.21;100432.09;3083387;28;20047;-75
2023/05/13 05:56:45;;;;;;;9.35;3.55;;;;;;;13.53;56.18;100423.31;3082990;28;20074;-79
2023/05/13 05:58:18;;;;;;;9.80;3.45;;;;;;;13.64;55.97;100424.50;3125033;28;20143;-79
2023/05/13 05:59:51;;;;;;;13.02;3.33;;;;;;;13.74;56.22;100427.53;3093994;28;20115;-78
2023/05/13 06:01:23;;;;;;;7.72;3.03;;;;;;;13.84;55.78;100428.78;3094029;28;20050;-75
2023/05/13 06:02:55;;;;;;;9.50;3.22;;;;;;;13.96;55.35;100429.09;3093248;28;20054;-76
2023/05/13 06:04:27;;;;;;;11.88;3.35;;;;;;;13.91;54.95;100413.63;3093908;28;20057;-77
2023/05/13 06:05:59;;;;;;;7.55;3.28;;;;;;;13.87;55.11;100399.84;3093393;28;20042;-75
2023/05/13 06:07:31;;;;;;;6.82;3.22;;;;;;;14.14;54.85;100430.81;3093101;28;20054;-76
2023/05/13 06:09:03;;;;;;;12.82;3.92;;;;;;;14.12;54.76;100422.19;3093000;28;20142;-74
2023/05/13 06:10:35;;;;;;;11.02;3.50;;;;;;;14.35;54.46;100431.50;3092618;28;20050;-79
2023/05/13 06:12:07;;;;;;;5.93;2.88;;;;;;;14.49;53.99;100433.41;3090938;28;20058;-74
2023/05/13 06:13:40;;;;;;;10.20;2.90;;;;;;;14.57;53.84;100440.00;3093248;28;20046;-71
2023/05/13 06:15:12;;;;;;;8.48;2.78;;;;;;;14.64;53.47;100437.03;3081310;28;20058;-74
2023/05/13 06:16:44;;;;;;;10.27;3.25;;;;;;;14.71;53.20;100435.81;3092522;28;20058;-74
2023/05/13 06:18:16;;;;;;;7.72;3.35;;;;;;;14.74;52.76;100435.66;3091691;28;20088;-76
2023/05/13 06:19:48;;;;;;;8.10;3.25;;;;;;;14.81;52.84;100441.41;3093697;28;20050;-75
2023/05/13 06:21:20;;;;;;;8.98;2.92;;;;;;;14.89;52.81;100449.75;3093627;28;20096;-73
2023/05/13 06:22:51;;;;;;;6.07;3.28;;;;;;;14.92;52.48;100450.41;3093144;28;20042;-74
2023/05/13 06:24:23;;;;;;;5.53;3.05;;;;;;;14.96;52.03;100458.97;3092430;28;20058;-71
2023/05/13 06:25:54;;;;;;;7.82;3.30;;;;;;;14.75;51.93;100414.59;3092268;28;20038;-73
2023/05/13 06:27:26;;;;;;;6.13;3.42;;;;;;;14.73;51.94;100402.47;3090857;28;20118;-78
2023/05/13 06:28:59;;;;;;;9.30;3.53;;;;;;;15.03;51.56;100449.88;3092913;28;20043;-69
2023/05/13 06:30:30;;;;;;;7.97;3.03;;;;;;;15.05;51.63;100444.53;3091880;28;20062;-70
2023/05/13 06:32:01;;;;;;;6.85;3.17;;;;;;;15.02;51.45;100435.03;3093812;28;20545;-71
2023/05/13 06:33:33;;;;;;;7.88;2.95;;;;;;;15.02;51.50;100427.16;3093351;28;20061;-78
2023/05/13 06:35:06;;;;;;;11.75;3.00;;;;;;;15.21;51.29;100441.00;3093055;28;20046;-74
2023/05/13 06:36:38;;;;;;;11.13;3.35;;;;;;;15.29;51.24;100437.94;3092962;28;20139;-74
2023/05/13 06:38:12;;;;;;;9.32;3.00;;;;;;;15.33;50.94;100449.13;3093186;28;20095;-73
2023/05/13 06:39:44;;;;;;;7.70;3.03;;;;;;;15.38;50.89;100437.47;3093297;28;20050;-75
2023/05/13 06:41:15;;;;;;;9.65;3.10;;;;;;;15.47;50.90;100439.56;3091774;28;20537;-83
2023/05/13 06:42:47;;;;;;;6.72;3.10;;;;;;;15.57;50.51;100444.31;3085879;28;20054;-77
2023/05/13 06:44:20;;;;;;;7.65;4.18;;;;;;;15.61;50.16;100451.06;3092679;28;20447;-79
2023/05/13 06:45:52;;;;;;;6.93;3.05;;;;;;;15.58;49.76;100435.50;3092440;28;20073;-77
2023/05/13 06:47:24;;;;;;;10.70;3.50;;;;;;;15.58;49.78;100428.47;3093421;28;20054;-81
2023/05/13 06:48:56;;;;;;;17.48;3.30;;;;;;;15.73;49.65;100433.81;3093537;28;20526;-78
2023/05/13 06:50:28;;;;;;;10.82;3.80;;;;;;;15.77;49.40;100432.72;3098536;28;20103;-75
2023/05/13 06:52:00;;;;;;;11.35;3.22;;;;;;;15.82;49.52;100431.50;3108191;28;20050;-82
2023/05/13 06:53:32;;;;;;;11.02;3.13;;;;;;;15.84;49.35;100434.91;3091982;28;20065;-77
2023/05/13 06:55:04;;;;;;;9.90;3.40;;;;;;;15.89;49.03;100440.75;3092260;28;20054;-74
2023/05/13 06:56:36;;;;;;;12.05;3.55;;;;;;;15.93;49.07;100439.63;3091805;28;20046;-73
2023/05/13 06:58:08;;;;;;;7.80;3.30;;;;;;;15.99;48.70;100438.44;3092069;28;20072;-73
2023/05/13 06:59:41;;;;;;;6.57;3.20;;;;;;;16.02;47.96;100434.78;3092233;28;20471;-72
2023/05/13 07:01:14;;;;;;;21.75;10.43;;;;;;;16.03;48.28;100445.22;3092324;28;20500;-74
2023/05/13 07:02:46;;;;;;;27.30;15.95;;;;;;;16.07;48.00;100438.00;3092114;28;20542;-74
2023/05/13 07:04:18;;;;;;;9.85;5.20;;;;;;;16.14;48.10;100442.81;3085169;28;20054;-73
2023/05/13 07:05:50;;;;;;;7.85;3.70;;;;;;;16.16;47.98;100442.72;3092118;28;20046;-71
2023/05/13 07:07:20;;;;;;;17.98;4.90;;;;;;;16.26;48.08;100448.28;3092448;28;20081;-72
2023/05/13 07:08:52;;;;;;;6.63;3.30;;;;;;;16.33;47.66;100450.47;3092552;28;20050;-71